sensor_id;sensor_type;location;lat;lon;timestamp;P1;durP1;ratioP1;P2;durP2;ratioP2
19306;SDS011;9788;48.194;16.318;2024-01-11T00:01:24;52.70;;;24.37;;
19306;SDS011;9788;48.194;16.318;2024-01-11T00:03:52;58.30;;;25.40;;
19306;SDS011;9788;48.194;16.318;2024-01-11T00:06:21;60.40;;;26.97;;
19306;SDS011;9788;48.194;16.318;2024-01-11T00:08:49;62.13;;;26.03;;
19306;SDS011;9788;48.194;16.318;2024-01-11T00:11:18;52.07;;;25.57;;
19306;SDS011;9788;48.194;16.318;2024-01-11T00:13:46;59.10;;;26.47;;
19306;SDS011;9788;48.194;16.318;2024-01-11T00:16:14;61.43;;;27.73;;
19306;SDS011;9788;48.194;16.318;2024-01-11T00:18:44;59.87;;;25.97;;
19306;SDS011;9788;48.194;16.318;2024-01-11T00:21:12;58.00;;;27.13;;
19306;SDS011;9788;48.194;16.318;2024-01-11T00:23:40;58.57;;;26.37;;
19306;SDS011;9788;48.194;16.318;2024-01-11T00:26:09;59.07;;;25.50;;
19306;SDS011;9788;48.194;16.318;2024-01-11T00:28:39;60.17;;;26.70;;
19306;SDS011;9788;48.194;16.318;2024-01-11T00:31:08;58.83;;;25.63;;
19306;SDS011;9788;48.194;16.318;2024-01-11T00:33:36;53.90;;;25.33;;
19306;SDS011;9788;48.194;16.318;2024-01-11T00:36:06;55.13;;;25.87;;
19306;SDS011;9788;48.194;16.318;2024-01-11T00:38:35;56.07;;;25.20;;
19306;SDS011;9788;48.194;16.318;2024-01-11T00:41:03;56.50;;;25.83;;
19306;SDS011;9788;48.194;16.318;2024-01-11T00:43:33;59.20;;;27.03;;
19306;SDS011;9788;48.194;16.318;2024-01-11T00:46:02;61.93;;;27.57;;
19306;SDS011;9788;48.194;16.318;2024-01-11T00:48:30;61.83;;;26.90;;
19306;SDS011;9788;48.194;16.318;2024-01-11T00:50:58;60.27;;;25.93;;
19306;SDS011;9788;48.194;16.318;2024-01-11T00:53:28;57.30;;;26.70;;
19306;SDS011;9788;48.194;16.318;2024-01-11T00:55:58;57.17;;;27.67;;
19306;SDS011;9788;48.194;16.318;2024-01-11T00:58:26;57.27;;;26.97;;
19306;SDS011;9788;48.194;16.318;2024-01-11T01:00:55;58.60;;;26.53;;
19306;SDS011;9788;48.194;16.318;2024-01-11T01:03:23;58.00;;;25.67;;
19306;SDS011;9788;48.194;16.318;2024-01-11T01:05:52;59.30;;;25.50;;
19306;SDS011;9788;48.194;16.318;2024-01-11T01:08:20;53.47;;;24.53;;
19306;SDS011;9788;48.194;16.318;2024-01-11T01:10:50;54.93;;;25.53;;
19306;SDS011;9788;48.194;16.318;2024-01-11T01:13:18;56.37;;;24.73;;
19306;SDS011;9788;48.194;16.318;2024-01-11T01:15:46;53.73;;;23.77;;
19306;SDS011;9788;48.194;16.318;2024-01-11T01:18:17;51.33;;;23.37;;
19306;SDS011;9788;48.194;16.318;2024-01-11T01:20:46;50.17;;;24.17;;
19306;SDS011;9788;48.194;16.318;2024-01-11T01:23:14;55.70;;;24.87;;
19306;SDS011;9788;48.194;16.318;2024-01-11T01:25:43;60.83;;;25.07;;
19306;SDS011;9788;48.194;16.318;2024-01-11T01:28:12;59.93;;;26.33;;
19306;SDS011;9788;48.194;16.318;2024-01-11T01:30:40;63.63;;;27.17;;
19306;SDS011;9788;48.194;16.318;2024-01-11T01:33:09;57.50;;;27.13;;
19306;SDS011;9788;48.194;16.318;2024-01-11T01:35:37;59.47;;;26.33;;
19306;SDS011;9788;48.194;16.318;2024-01-11T01:38:06;56.37;;;26.57;;
19306;SDS011;9788;48.194;16.318;2024-01-11T01:40:34;62.13;;;27.73;;
19306;SDS011;9788;48.194;16.318;2024-01-11T01:43:06;59.03;;;27.13;;
19306;SDS011;9788;48.194;16.318;2024-01-11T01:45:36;62.90;;;26.50;;
19306;SDS011;9788;48.194;16.318;2024-01-11T01:48:05;67.10;;;28.03;;
19306;SDS011;9788;48.194;16.318;2024-01-11T01:50:34;54.63;;;25.27;;
19306;SDS011;9788;48.194;16.318;2024-01-11T01:53:02;54.87;;;24.47;;
19306;SDS011;9788;48.194;16.318;2024-01-11T01:55:31;59.07;;;25.33;;
19306;SDS011;9788;48.194;16.318;2024-01-11T01:58:00;56.37;;;25.20;;
19306;SDS011;9788;48.194;16.318;2024-01-11T02:00:30;53.60;;;24.43;;
19306;SDS011;9788;48.194;16.318;2024-01-11T02:03:00;56.00;;;25.40;;
19306;SDS011;9788;48.194;16.318;2024-01-11T02:05:29;51.80;;;24.10;;
19306;SDS011;9788;48.194;16.318;2024-01-11T02:07:58;49.17;;;23.30;;
19306;SDS011;9788;48.194;16.318;2024-01-11T02:10:28;55.57;;;24.47;;
19306;SDS011;9788;48.194;16.318;2024-01-11T02:13:00;48.53;;;23.30;;
19306;SDS011;9788;48.194;16.318;2024-01-11T02:15:28;57.10;;;23.50;;
19306;SDS011;9788;48.194;16.318;2024-01-11T02:17:56;50.67;;;23.30;;
19306;SDS011;9788;48.194;16.318;2024-01-11T02:20:26;52.70;;;23.90;;
19306;SDS011;9788;48.194;16.318;2024-01-11T02:22:56;52.90;;;23.37;;
19306;SDS011;9788;48.194;16.318;2024-01-11T02:25:30;49.10;;;22.60;;
19306;SDS011;9788;48.194;16.318;2024-01-11T02:27:58;47.93;;;22.30;;
19306;SDS011;9788;48.194;16.318;2024-01-11T02:30:26;51.83;;;23.10;;
19306;SDS011;9788;48.194;16.318;2024-01-11T02:32:54;49.50;;;23.13;;
19306;SDS011;9788;48.194;16.318;2024-01-11T02:35:23;52.00;;;23.80;;
19306;SDS011;9788;48.194;16.318;2024-01-11T02:37:53;53.77;;;22.10;;
19306;SDS011;9788;48.194;16.318;2024-01-11T02:40:22;48.27;;;22.37;;
19306;SDS011;9788;48.194;16.318;2024-01-11T02:42:51;57.43;;;22.40;;
19306;SDS011;9788;48.194;16.318;2024-01-11T02:45:19;47.50;;;21.50;;
19306;SDS011;9788;48.194;16.318;2024-01-11T02:47:50;48.87;;;21.63;;
19306;SDS011;9788;48.194;16.318;2024-01-11T02:50:18;48.37;;;21.20;;
19306;SDS011;9788;48.194;16.318;2024-01-11T02:52:47;46.07;;;21.23;;
19306;SDS011;9788;48.194;16.318;2024-01-11T02:55:15;48.37;;;21.43;;
19306;SDS011;9788;48.194;16.318;2024-01-11T02:57:43;45.27;;;20.47;;
19306;SDS011;9788;48.194;16.318;2024-01-11T03:00:13;48.83;;;21.10;;
19306;SDS011;9788;48.194;16.318;2024-01-11T03:02:42;48.47;;;21.10;;
19306;SDS011;9788;48.194;16.318;2024-01-11T03:05:10;47.27;;;21.13;;
19306;SDS011;9788;48.194;16.318;2024-01-11T03:07:38;46.93;;;20.13;;
19306;SDS011;9788;48.194;16.318;2024-01-11T03:10:06;47.83;;;21.33;;
19306;SDS011;9788;48.194;16.318;2024-01-11T03:12:37;43.50;;;19.87;;
19306;SDS011;9788;48.194;16.318;2024-01-11T03:15:05;48.23;;;20.57;;
19306;SDS011;9788;48.194;16.318;2024-01-11T03:17:35;45.13;;;20.90;;
19306;SDS011;9788;48.194;16.318;2024-01-11T03:20:04;48.77;;;20.97;;
19306;SDS011;9788;48.194;16.318;2024-01-11T03:22:32;56.87;;;23.20;;
19306;SDS011;9788;48.194;16.318;2024-01-11T03:25:01;46.63;;;21.73;;
19306;SDS011;9788;48.194;16.318;2024-01-11T03:27:29;50.83;;;22.00;;
19306;SDS011;9788;48.194;16.318;2024-01-11T03:29:57;50.33;;;21.67;;
19306;SDS011;9788;48.194;16.318;2024-01-11T03:32:26;47.20;;;22.27;;
19306;SDS011;9788;48.194;16.318;2024-01-11T03:34:55;52.30;;;22.03;;
19306;SDS011;9788;48.194;16.318;2024-01-11T03:37:24;50.63;;;21.93;;
19306;SDS011;9788;48.194;16.318;2024-01-11T03:39:52;49.83;;;22.47;;
19306;SDS011;9788;48.194;16.318;2024-01-11T03:42:20;51.00;;;23.00;;
19306;SDS011;9788;48.194;16.318;2024-01-11T03:44:48;50.87;;;23.30;;
19306;SDS011;9788;48.194;16.318;2024-01-11T03:47:17;49.83;;;23.43;;
19306;SDS011;9788;48.194;16.318;2024-01-11T03:49:45;52.70;;;22.47;;
19306;SDS011;9788;48.194;16.318;2024-01-11T03:52:14;50.87;;;22.57;;
19306;SDS011;9788;48.194;16.318;2024-01-11T03:54:42;47.73;;;22.00;;
19306;SDS011;9788;48.194;16.318;2024-01-11T03:57:11;50.87;;;22.23;;
19306;SDS011;9788;48.194;16.318;2024-01-11T03:59:39;46.23;;;21.40;;
19306;SDS011;9788;48.194;16.318;2024-01-11T04:02:08;52.03;;;23.13;;
19306;SDS011;9788;48.194;16.318;2024-01-11T04:04:36;51.20;;;21.93;;
19306;SDS011;9788;48.194;16.318;2024-01-11T04:07:04;54.03;;;22.57;;
19306;SDS011;9788;48.194;16.318;2024-01-11T04:09:36;48.77;;;23.23;;
19306;SDS011;9788;48.194;16.318;2024-01-11T04:12:05;55.27;;;24.30;;
19306;SDS011;9788;48.194;16.318;2024-01-11T04:14:33;56.33;;;24.03;;
19306;SDS011;9788;48.194;16.318;2024-01-11T04:17:05;55.67;;;24.77;;
19306;SDS011;9788;48.194;16.318;2024-01-11T04:19:33;52.83;;;25.90;;
19306;SDS011;9788;48.194;16.318;2024-01-11T04:22:01;54.53;;;25.00;;
19306;SDS011;9788;48.194;16.318;2024-01-11T04:24:29;56.43;;;24.67;;
19306;SDS011;9788;48.194;16.318;2024-01-11T04:26:59;58.80;;;25.17;;
19306;SDS011;9788;48.194;16.318;2024-01-11T04:29:27;59.57;;;26.17;;
19306;SDS011;9788;48.194;16.318;2024-01-11T04:31:55;54.57;;;25.27;;
19306;SDS011;9788;48.194;16.318;2024-01-11T04:34:24;55.67;;;25.53;;
19306;SDS011;9788;48.194;16.318;2024-01-11T04:36:53;54.50;;;26.60;;
19306;SDS011;9788;48.194;16.318;2024-01-11T04:39:21;60.40;;;26.23;;
19306;SDS011;9788;48.194;16.318;2024-01-11T04:41:49;59.77;;;26.97;;
19306;SDS011;9788;48.194;16.318;2024-01-11T04:44:19;61.20;;;26.67;;
19306;SDS011;9788;48.194;16.318;2024-01-11T04:46:47;59.60;;;26.80;;
19306;SDS011;9788;48.194;16.318;2024-01-11T04:49:15;58.90;;;27.37;;
19306;SDS011;9788;48.194;16.318;2024-01-11T04:51:44;60.33;;;27.60;;
19306;SDS011;9788;48.194;16.318;2024-01-11T04:54:12;65.73;;;26.60;;
19306;SDS011;9788;48.194;16.318;2024-01-11T04:56:40;59.63;;;27.10;;
19306;SDS011;9788;48.194;16.318;2024-01-11T04:59:08;64.27;;;25.67;;
19306;SDS011;9788;48.194;16.318;2024-01-11T05:01:38;60.47;;;26.90;;
19306;SDS011;9788;48.194;16.318;2024-01-11T05:04:08;67.30;;;27.77;;
19306;SDS011;9788;48.194;16.318;2024-01-11T05:06:37;60.77;;;27.43;;
19306;SDS011;9788;48.194;16.318;2024-01-11T05:09:05;64.30;;;27.67;;
19306;SDS011;9788;48.194;16.318;2024-01-11T05:11:33;62.03;;;26.60;;
19306;SDS011;9788;48.194;16.318;2024-01-11T05:14:01;59.90;;;27.50;;
19306;SDS011;9788;48.194;16.318;2024-01-11T05:16:29;68.13;;;28.30;;
19306;SDS011;9788;48.194;16.318;2024-01-11T05:19:00;64.57;;;27.17;;
19306;SDS011;9788;48.194;16.318;2024-01-11T05:21:28;68.33;;;28.20;;
19306;SDS011;9788;48.194;16.318;2024-01-11T05:23:57;61.50;;;28.40;;
19306;SDS011;9788;48.194;16.318;2024-01-11T05:26:25;67.33;;;28.23;;
19306;SDS011;9788;48.194;16.318;2024-01-11T05:28:54;64.23;;;27.83;;
19306;SDS011;9788;48.194;16.318;2024-01-11T05:31:22;67.90;;;28.37;;
19306;SDS011;9788;48.194;16.318;2024-01-11T05:33:50;68.73;;;28.67;;
19306;SDS011;9788;48.194;16.318;2024-01-11T05:36:20;70.33;;;30.10;;
19306;SDS011;9788;48.194;16.318;2024-01-11T05:38:49;69.43;;;30.70;;
19306;SDS011;9788;48.194;16.318;2024-01-11T05:41:17;66.63;;;30.17;;
19306;SDS011;9788;48.194;16.318;2024-01-11T05:43:45;69.50;;;28.87;;
19306;SDS011;9788;48.194;16.318;2024-01-11T05:46:13;72.60;;;30.57;;
19306;SDS011;9788;48.194;16.318;2024-01-11T05:48:41;73.33;;;30.73;;
19306;SDS011;9788;48.194;16.318;2024-01-11T05:51:10;72.67;;;31.00;;
19306;SDS011;9788;48.194;16.318;2024-01-11T05:53:39;68.87;;;29.47;;
19306;SDS011;9788;48.194;16.318;2024-01-11T05:56:09;68.90;;;27.80;;
19306;SDS011;9788;48.194;16.318;2024-01-11T05:58:39;67.77;;;27.90;;
19306;SDS011;9788;48.194;16.318;2024-01-11T06:01:07;72.87;;;29.77;;
19306;SDS011;9788;48.194;16.318;2024-01-11T06:03:35;67.50;;;28.37;;
19306;SDS011;9788;48.194;16.318;2024-01-11T06:06:05;62.83;;;28.13;;
19306;SDS011;9788;48.194;16.318;2024-01-11T06:08:34;66.80;;;26.97;;
19306;SDS011;9788;48.194;16.318;2024-01-11T06:11:04;72.90;;;27.77;;
19306;SDS011;9788;48.194;16.318;2024-01-11T06:13:34;64.67;;;28.20;;
19306;SDS011;9788;48.194;16.318;2024-01-11T06:16:03;65.53;;;26.47;;
19306;SDS011;9788;48.194;16.318;2024-01-11T06:18:31;66.23;;;27.27;;
19306;SDS011;9788;48.194;16.318;2024-01-11T06:20:59;62.63;;;28.27;;
19306;SDS011;9788;48.194;16.318;2024-01-11T06:23:27;66.53;;;27.97;;
19306;SDS011;9788;48.194;16.318;2024-01-11T06:25:56;64.80;;;28.53;;
19306;SDS011;9788;48.194;16.318;2024-01-11T06:28:25;68.40;;;28.07;;
19306;SDS011;9788;48.194;16.318;2024-01-11T06:30:54;60.33;;;26.93;;
19306;SDS011;9788;48.194;16.318;2024-01-11T06:33:23;68.23;;;28.87;;
19306;SDS011;9788;48.194;16.318;2024-01-11T06:35:51;66.10;;;28.57;;
19306;SDS011;9788;48.194;16.318;2024-01-11T06:38:20;65.57;;;27.70;;
19306;SDS011;9788;48.194;16.318;2024-01-11T06:40:48;64.17;;;27.80;;
19306;SDS011;9788;48.194;16.318;2024-01-11T06:43:17;72.73;;;29.63;;
19306;SDS011;9788;48.194;16.318;2024-01-11T06:45:46;77.03;;;30.33;;
19306;SDS011;9788;48.194;16.318;2024-01-11T06:48:14;91.53;;;34.87;;
19306;SDS011;9788;48.194;16.318;2024-01-11T06:50:43;91.17;;;34.30;;
19306;SDS011;9788;48.194;16.318;2024-01-11T06:53:11;80.37;;;35.67;;
19306;SDS011;9788;48.194;16.318;2024-01-11T06:55:40;70.33;;;31.30;;
19306;SDS011;9788;48.194;16.318;2024-01-11T06:58:10;69.47;;;26.20;;
19306;SDS011;9788;48.194;16.318;2024-01-11T07:00:38;74.27;;;29.57;;
19306;SDS011;9788;48.194;16.318;2024-01-11T07:03:12;70.50;;;31.23;;
19306;SDS011;9788;48.194;16.318;2024-01-11T07:05:41;69.80;;;30.67;;
19306;SDS011;9788;48.194;16.318;2024-01-11T07:08:10;75.47;;;31.47;;
19306;SDS011;9788;48.194;16.318;2024-01-11T07:10:39;73.60;;;31.23;;
19306;SDS011;9788;48.194;16.318;2024-01-11T07:13:09;74.50;;;30.90;;
19306;SDS011;9788;48.194;16.318;2024-01-11T07:15:38;66.37;;;28.60;;
19306;SDS011;9788;48.194;16.318;2024-01-11T07:18:06;69.23;;;29.73;;
19306;SDS011;9788;48.194;16.318;2024-01-11T07:20:36;65.47;;;30.37;;
19306;SDS011;9788;48.194;16.318;2024-01-11T07:23:04;69.80;;;29.53;;
19306;SDS011;9788;48.194;16.318;2024-01-11T07:25:32;63.87;;;29.90;;
19306;SDS011;9788;48.194;16.318;2024-01-11T07:28:01;69.33;;;26.73;;
19306;SDS011;9788;48.194;16.318;2024-01-11T07:30:30;58.30;;;27.63;;
19306;SDS011;9788;48.194;16.318;2024-01-11T07:32:58;64.93;;;28.10;;
19306;SDS011;9788;48.194;16.318;2024-01-11T07:35:27;66.47;;;28.70;;
19306;SDS011;9788;48.194;16.318;2024-01-11T07:37:57;64.87;;;28.23;;
19306;SDS011;9788;48.194;16.318;2024-01-11T07:40:26;63.17;;;28.20;;
19306;SDS011;9788;48.194;16.318;2024-01-11T07:42:57;71.07;;;28.37;;
19306;SDS011;9788;48.194;16.318;2024-01-11T07:45:25;60.67;;;27.70;;
19306;SDS011;9788;48.194;16.318;2024-01-11T07:47:53;60.37;;;28.33;;
19306;SDS011;9788;48.194;16.318;2024-01-11T07:50:22;59.00;;;26.67;;
19306;SDS011;9788;48.194;16.318;2024-01-11T07:52:50;84.17;;;30.07;;
19306;SDS011;9788;48.194;16.318;2024-01-11T07:55:22;67.80;;;29.33;;
19306;SDS011;9788;48.194;16.318;2024-01-11T07:57:51;62.03;;;27.63;;
19306;SDS011;9788;48.194;16.318;2024-01-11T08:00:22;62.10;;;28.30;;
19306;SDS011;9788;48.194;16.318;2024-01-11T08:02:51;67.57;;;29.53;;
19306;SDS011;9788;48.194;16.318;2024-01-11T08:05:21;61.50;;;28.43;;
19306;SDS011;9788;48.194;16.318;2024-01-11T08:07:51;62.53;;;27.10;;
19306;SDS011;9788;48.194;16.318;2024-01-11T08:10:19;62.73;;;28.67;;
19306;SDS011;9788;48.194;16.318;2024-01-11T08:12:49;62.77;;;27.00;;
19306;SDS011;9788;48.194;16.318;2024-01-11T08:15:18;60.70;;;28.67;;
19306;SDS011;9788;48.194;16.318;2024-01-11T08:17:46;62.57;;;27.87;;
19306;SDS011;9788;48.194;16.318;2024-01-11T08:20:15;59.90;;;26.83;;
19306;SDS011;9788;48.194;16.318;2024-01-11T08:22:46;66.10;;;28.27;;
19306;SDS011;9788;48.194;16.318;2024-01-11T08:25:14;73.27;;;30.20;;
19306;SDS011;9788;48.194;16.318;2024-01-11T08:27:42;64.90;;;27.70;;
19306;SDS011;9788;48.194;16.318;2024-01-11T08:30:12;71.43;;;30.10;;
19306;SDS011;9788;48.194;16.318;2024-01-11T08:32:41;66.90;;;28.37;;
19306;SDS011;9788;48.194;16.318;2024-01-11T08:35:09;66.00;;;28.70;;
19306;SDS011;9788;48.194;16.318;2024-01-11T08:37:38;68.93;;;28.93;;
19306;SDS011;9788;48.194;16.318;2024-01-11T08:40:07;59.90;;;27.87;;
19306;SDS011;9788;48.194;16.318;2024-01-11T08:42:37;60.37;;;27.07;;
19306;SDS011;9788;48.194;16.318;2024-01-11T08:45:07;89.80;;;33.87;;
19306;SDS011;9788;48.194;16.318;2024-01-11T08:47:37;77.17;;;28.63;;
19306;SDS011;9788;48.194;16.318;2024-01-11T08:50:07;72.03;;;34.60;;
19306;SDS011;9788;48.194;16.318;2024-01-11T08:52:43;56.20;;;26.83;;
19306;SDS011;9788;48.194;16.318;2024-01-11T08:55:17;60.03;;;25.87;;
19306;SDS011;9788;48.194;16.318;2024-01-11T08:57:45;61.70;;;26.57;;
19306;SDS011;9788;48.194;16.318;2024-01-11T09:00:13;61.50;;;25.10;;
19306;SDS011;9788;48.194;16.318;2024-01-11T09:02:45;65.83;;;25.53;;
19306;SDS011;9788;48.194;16.318;2024-01-11T09:05:14;53.87;;;24.17;;
19306;SDS011;9788;48.194;16.318;2024-01-11T09:07:43;56.33;;;26.10;;
19306;SDS011;9788;48.194;16.318;2024-01-11T09:10:11;58.47;;;26.03;;
19306;SDS011;9788;48.194;16.318;2024-01-11T09:12:40;56.07;;;23.83;;
19306;SDS011;9788;48.194;16.318;2024-01-11T09:15:12;64.33;;;25.67;;
19306;SDS011;9788;48.194;16.318;2024-01-11T09:17:40;70.73;;;24.90;;
19306;SDS011;9788;48.194;16.318;2024-01-11T09:20:10;59.37;;;26.00;;
19306;SDS011;9788;48.194;16.318;2024-01-11T09:22:40;63.07;;;26.63;;
19306;SDS011;9788;48.194;16.318;2024-01-11T09:25:08;60.07;;;25.00;;
19306;SDS011;9788;48.194;16.318;2024-01-11T09:27:37;66.73;;;26.27;;
19306;SDS011;9788;48.194;16.318;2024-01-11T09:30:08;57.10;;;24.40;;
19306;SDS011;9788;48.194;16.318;2024-01-11T09:32:37;59.83;;;25.87;;
19306;SDS011;9788;48.194;16.318;2024-01-11T09:35:07;57.57;;;25.80;;
19306;SDS011;9788;48.194;16.318;2024-01-11T09:37:40;53.97;;;24.77;;
19306;SDS011;9788;48.194;16.318;2024-01-11T09:40:09;56.90;;;25.30;;
19306;SDS011;9788;48.194;16.318;2024-01-11T09:42:38;53.20;;;25.93;;
19306;SDS011;9788;48.194;16.318;2024-01-11T09:45:09;54.27;;;26.67;;
19306;SDS011;9788;48.194;16.318;2024-01-11T09:47:40;53.17;;;25.43;;
19306;SDS011;9788;48.194;16.318;2024-01-11T09:50:09;51.07;;;25.77;;
19306;SDS011;9788;48.194;16.318;2024-01-11T09:52:42;46.07;;;24.47;;
19306;SDS011;9788;48.194;16.318;2024-01-11T09:55:13;43.70;;;24.07;;
19306;SDS011;9788;48.194;16.318;2024-01-11T09:57:43;46.67;;;23.63;;
19306;SDS011;9788;48.194;16.318;2024-01-11T10:00:13;49.60;;;25.50;;
19306;SDS011;9788;48.194;16.318;2024-01-11T10:02:45;48.10;;;25.50;;
19306;SDS011;9788;48.194;16.318;2024-01-11T10:05:14;48.03;;;24.57;;
19306;SDS011;9788;48.194;16.318;2024-01-11T10:07:45;66.87;;;27.13;;
19306;SDS011;9788;48.194;16.318;2024-01-11T10:10:13;68.83;;;27.10;;
19306;SDS011;9788;48.194;16.318;2024-01-11T10:12:43;49.17;;;24.70;;
19306;SDS011;9788;48.194;16.318;2024-01-11T10:15:14;44.97;;;25.13;;
19306;SDS011;9788;48.194;16.318;2024-01-11T10:17:43;48.93;;;26.40;;
19306;SDS011;9788;48.194;16.318;2024-01-11T10:20:13;55.40;;;26.90;;
19306;SDS011;9788;48.194;16.318;2024-01-11T10:22:42;60.50;;;27.53;;
19306;SDS011;9788;48.194;16.318;2024-01-11T10:25:12;64.20;;;27.53;;
19306;SDS011;9788;48.194;16.318;2024-01-11T10:27:42;49.03;;;26.27;;
19306;SDS011;9788;48.194;16.318;2024-01-11T10:30:12;57.97;;;25.53;;
19306;SDS011;9788;48.194;16.318;2024-01-11T10:32:43;70.67;;;28.00;;
19306;SDS011;9788;48.194;16.318;2024-01-11T10:35:11;49.73;;;24.97;;
19306;SDS011;9788;48.194;16.318;2024-01-11T10:37:40;42.57;;;24.10;;
19306;SDS011;9788;48.194;16.318;2024-01-11T10:40:13;44.47;;;24.43;;
19306;SDS011;9788;48.194;16.318;2024-01-11T10:42:43;51.37;;;24.97;;
19306;SDS011;9788;48.194;16.318;2024-01-11T10:45:14;45.97;;;24.33;;
19306;SDS011;9788;48.194;16.318;2024-01-11T10:47:47;51.80;;;24.80;;
19306;SDS011;9788;48.194;16.318;2024-01-11T10:50:19;47.63;;;23.87;;
19306;SDS011;9788;48.194;16.318;2024-01-11T10:53:02;62.40;;;26.10;;
19306;SDS011;9788;48.194;16.318;2024-01-11T10:55:42;47.73;;;25.90;;
19306;SDS011;9788;48.194;16.318;2024-01-11T10:58:11;48.10;;;26.10;;
19306;SDS011;9788;48.194;16.318;2024-01-11T11:00:40;43.83;;;23.97;;
19306;SDS011;9788;48.194;16.318;2024-01-11T11:03:09;47.53;;;25.23;;
19306;SDS011;9788;48.194;16.318;2024-01-11T11:05:39;46.00;;;25.13;;
19306;SDS011;9788;48.194;16.318;2024-01-11T11:08:08;55.10;;;25.13;;
19306;SDS011;9788;48.194;16.318;2024-01-11T11:10:38;42.23;;;22.67;;
19306;SDS011;9788;48.194;16.318;2024-01-11T11:13:09;49.83;;;24.60;;
19306;SDS011;9788;48.194;16.318;2024-01-11T11:15:40;52.93;;;24.10;;
19306;SDS011;9788;48.194;16.318;2024-01-11T11:18:13;75.70;;;26.17;;
19306;SDS011;9788;48.194;16.318;2024-01-11T11:20:41;51.27;;;24.17;;
19306;SDS011;9788;48.194;16.318;2024-01-11T11:23:13;58.20;;;24.67;;
19306;SDS011;9788;48.194;16.318;2024-01-11T11:25:44;45.93;;;23.23;;
19306;SDS011;9788;48.194;16.318;2024-01-11T11:28:15;51.23;;;23.63;;
19306;SDS011;9788;48.194;16.318;2024-01-11T11:30:47;52.17;;;24.37;;
19306;SDS011;9788;48.194;16.318;2024-01-11T11:33:18;49.57;;;23.40;;
19306;SDS011;9788;48.194;16.318;2024-01-11T11:35:52;50.77;;;24.43;;
19306;SDS011;9788;48.194;16.318;2024-01-11T11:38:21;49.40;;;24.37;;
19306;SDS011;9788;48.194;16.318;2024-01-11T11:40:52;60.33;;;25.43;;
19306;SDS011;9788;48.194;16.318;2024-01-11T11:43:23;52.10;;;24.53;;
19306;SDS011;9788;48.194;16.318;2024-01-11T11:45:53;70.57;;;25.90;;
19306;SDS011;9788;48.194;16.318;2024-01-11T11:51:19;49.83;;;24.10;;
19306;SDS011;9788;48.194;16.318;2024-01-11T11:53:52;45.10;;;23.53;;
19306;SDS011;9788;48.194;16.318;2024-01-11T11:56:21;87.30;;;27.73;;
19306;SDS011;9788;48.194;16.318;2024-01-11T11:58:51;47.87;;;23.00;;
19306;SDS011;9788;48.194;16.318;2024-01-11T12:01:22;44.47;;;21.93;;
19306;SDS011;9788;48.194;16.318;2024-01-11T12:03:52;61.57;;;24.47;;
19306;SDS011;9788;48.194;16.318;2024-01-11T12:06:21;57.00;;;22.10;;
19306;SDS011;9788;48.194;16.318;2024-01-11T12:08:52;46.73;;;22.30;;
19306;SDS011;9788;48.194;16.318;2024-01-11T12:11:24;52.50;;;23.53;;
19306;SDS011;9788;48.194;16.318;2024-01-11T12:13:54;49.43;;;22.03;;
19306;SDS011;9788;48.194;16.318;2024-01-11T12:16:24;48.97;;;21.20;;
19306;SDS011;9788;48.194;16.318;2024-01-11T12:18:53;49.43;;;22.43;;
19306;SDS011;9788;48.194;16.318;2024-01-11T12:21:22;49.03;;;22.10;;
19306;SDS011;9788;48.194;16.318;2024-01-11T12:23:50;40.47;;;20.90;;
19306;SDS011;9788;48.194;16.318;2024-01-11T12:26:18;40.00;;;20.57;;
19306;SDS011;9788;48.194;16.318;2024-01-11T12:28:51;39.80;;;20.83;;
19306;SDS011;9788;48.194;16.318;2024-01-11T12:31:22;45.10;;;22.03;;
19306;SDS011;9788;48.194;16.318;2024-01-11T12:33:50;52.10;;;22.57;;
19306;SDS011;9788;48.194;16.318;2024-01-11T12:36:20;47.23;;;21.80;;
19306;SDS011;9788;48.194;16.318;2024-01-11T12:38:49;48.60;;;22.03;;
19306;SDS011;9788;48.194;16.318;2024-01-11T12:41:19;45.10;;;21.70;;
19306;SDS011;9788;48.194;16.318;2024-01-11T12:43:49;57.03;;;24.43;;
19306;SDS011;9788;48.194;16.318;2024-01-11T12:46:17;45.30;;;22.93;;
19306;SDS011;9788;48.194;16.318;2024-01-11T12:48:47;39.43;;;18.77;;
19306;SDS011;9788;48.194;16.318;2024-01-11T12:51:18;58.70;;;21.37;;
19306;SDS011;9788;48.194;16.318;2024-01-11T12:53:48;52.87;;;21.27;;
19306;SDS011;9788;48.194;16.318;2024-01-11T12:56:18;48.07;;;21.37;;
19306;SDS011;9788;48.194;16.318;2024-01-11T12:58:49;49.07;;;20.67;;
19306;SDS011;9788;48.194;16.318;2024-01-11T13:01:18;43.17;;;21.30;;
19306;SDS011;9788;48.194;16.318;2024-01-11T13:03:49;44.40;;;20.73;;
19306;SDS011;9788;48.194;16.318;2024-01-11T13:06:18;44.03;;;19.90;;
19306;SDS011;9788;48.194;16.318;2024-01-11T13:08:47;52.67;;;20.80;;
19306;SDS011;9788;48.194;16.318;2024-01-11T13:11:15;50.27;;;21.80;;
19306;SDS011;9788;48.194;16.318;2024-01-11T13:13:47;41.17;;;20.30;;
19306;SDS011;9788;48.194;16.318;2024-01-11T13:16:15;41.93;;;20.77;;
19306;SDS011;9788;48.194;16.318;2024-01-11T13:18:45;40.80;;;20.63;;
19306;SDS011;9788;48.194;16.318;2024-01-11T13:21:17;63.67;;;23.40;;
19306;SDS011;9788;48.194;16.318;2024-01-11T13:23:47;51.07;;;22.70;;
19306;SDS011;9788;48.194;16.318;2024-01-11T13:26:17;44.00;;;22.40;;
19306;SDS011;9788;48.194;16.318;2024-01-11T13:28:47;51.83;;;23.00;;
19306;SDS011;9788;48.194;16.318;2024-01-11T13:31:18;52.63;;;23.73;;
19306;SDS011;9788;48.194;16.318;2024-01-11T13:33:47;52.17;;;25.57;;
19306;SDS011;9788;48.194;16.318;2024-01-11T13:36:18;48.17;;;23.77;;
19306;SDS011;9788;48.194;16.318;2024-01-11T13:38:46;46.87;;;22.37;;
19306;SDS011;9788;48.194;16.318;2024-01-11T13:41:18;48.43;;;21.93;;
19306;SDS011;9788;48.194;16.318;2024-01-11T13:43:47;51.80;;;22.50;;
19306;SDS011;9788;48.194;16.318;2024-01-11T13:46:15;44.87;;;23.13;;
19306;SDS011;9788;48.194;16.318;2024-01-11T13:48:46;58.33;;;24.50;;
19306;SDS011;9788;48.194;16.318;2024-01-11T13:51:14;59.87;;;23.77;;
19306;SDS011;9788;48.194;16.318;2024-01-11T13:53:45;55.93;;;25.30;;
19306;SDS011;9788;48.194;16.318;2024-01-11T13:56:14;58.30;;;24.87;;
19306;SDS011;9788;48.194;16.318;2024-01-11T13:58:42;52.70;;;24.17;;
19306;SDS011;9788;48.194;16.318;2024-01-11T14:01:14;44.90;;;21.13;;
19306;SDS011;9788;48.194;16.318;2024-01-11T14:03:43;52.00;;;25.00;;
19306;SDS011;9788;48.194;16.318;2024-01-11T14:06:15;47.30;;;23.00;;
19306;SDS011;9788;48.194;16.318;2024-01-11T14:08:43;48.47;;;22.03;;
19306;SDS011;9788;48.194;16.318;2024-01-11T14:11:16;44.77;;;23.10;;
19306;SDS011;9788;48.194;16.318;2024-01-11T14:13:45;53.53;;;24.30;;
19306;SDS011;9788;48.194;16.318;2024-01-11T14:16:17;52.03;;;21.97;;
19306;SDS011;9788;48.194;16.318;2024-01-11T14:18:45;57.33;;;23.53;;
19306;SDS011;9788;48.194;16.318;2024-01-11T14:21:15;38.67;;;21.03;;
19306;SDS011;9788;48.194;16.318;2024-01-11T14:23:43;43.13;;;20.70;;
19306;SDS011;9788;48.194;16.318;2024-01-11T14:26:13;46.10;;;21.67;;
19306;SDS011;9788;48.194;16.318;2024-01-11T14:28:45;47.40;;;21.53;;
19306;SDS011;9788;48.194;16.318;2024-01-11T14:31:13;43.70;;;21.47;;
19306;SDS011;9788;48.194;16.318;2024-01-11T14:33:43;43.70;;;22.00;;
19306;SDS011;9788;48.194;16.318;2024-01-11T14:36:12;39.97;;;20.33;;